Time;durP1;ratioP1;P1;durP2;ratioP2;P2;SDS_P1;SDS_P2;PMS_P1;PMS_P2;Temp;Humidity;BMP_temperature;BMP_pressure;BME280_temperature;BME280_humidity;BME280_pressure;Samples;Min_cycle;Max_cycle;Signal;HPM_P1;HPM_P2
2021/03/18 00:00:45;;;;;;;6.33;4.90;;;6.00;39.10;;;;;;5069581;28;20437;-73
2021/03/18 00:03:13;;;;;;;6.50;5.80;;;5.80;41.10;;;;;;5069683;28;20490;-72
2021/03/18 00:05:38;;;;;;;5.00;4.70;;;5.70;40.20;;;;;;5069537;28;20448;-72
2021/03/18 00:08:05;;;;;;;6.33;5.23;;;5.30;40.50;;;;;;5069128;28;20419;-72
2021/03/18 00:10:30;;;;;;;5.80;5.27;;;5.50;41.90;;;;;;5068375;28;20187;-72
2021/03/18 00:12:56;;;;;;;5.53;5.20;;;5.70;42.50;;;;;;5069662;28;20461;-73
2021/03/18 00:15:22;;;;;;;5.27;4.87;;;5.70;40.60;;;;;;5068217;28;20676;-73
2021/03/18 00:17:48;;;;;;;5.40;4.90;;;5.70;39.80;;;;;;5069652;28;20179;-72
2021/03/18 00:20:15;;;;;;;5.50;5.10;;;6.00;38.50;;;;;;5069450;28;20490;-72
2021/03/18 00:22:41;;;;;;;5.20;4.77;;;5.90;38.50;;;;;;5068971;28;20427;-72
2021/03/18 00:25:10;;;;;;;6.70;4.90;;;5.70;39.00;;;;;;5069282;28;20403;-72
2021/03/18 00:27:37;;;;;;;6.53;4.67;;;5.50;38.90;;;;;;5068961;28;20425;-74
2021/03/18 00:30:03;;;;;;;6.10;5.13;;;5.40;40.40;;;;;;5068954;28;20409;-73
2021/03/18 00:32:29;;;;;;;5.60;5.20;;;5.50;40.60;;;;;;5069009;28;20459;-72
2021/03/18 00:34:54;;;;;;;5.33;4.83;;;5.20;40.80;;;;;;5069582;28;20778;-72
2021/03/18 00:37:20;;;;;;;4.87;4.47;;;5.00;40.80;;;;;;5068597;28;20630;-73
2021/03/18 00:39:46;;;;;;;5.47;5.07;;;5.00;41.70;;;;;;5069210;28;20181;-72
2021/03/18 00:42:11;;;;;;;5.67;5.17;;;5.10;40.80;;;;;;5069036;28;20192;-73
2021/03/18 00:44:37;;;;;;;5.53;5.10;;;5.30;42.20;;;;;;5068640;28;20167;-73
2021/03/18 00:47:03;;;;;;;8.83;5.10;;;5.50;41.30;;;;;;5069134;28;20180;-72
2021/03/18 00:49:28;;;;;;;5.07;4.73;;;5.40;40.50;;;;;;5068619;28;20183;-73
2021/03/18 00:51:54;;;;;;;4.53;4.10;;;5.40;40.20;;;;;;5068663;28;20213;-72
2021/03/18 00:54:19;;;;;;;5.60;5.10;;;5.40;38.00;;;;;;5068878;28;20199;-72
2021/03/18 00:56:45;;;;;;;5.07;4.63;;;5.20;39.50;;;;;;5068774;28;20163;-72
2021/03/18 00:59:10;;;;;;;5.70;5.20;;;5.20;39.00;;;;;;5068622;28;20176;-72
2021/03/18 01:01:36;;;;;;;5.60;5.10;;;5.30;39.60;;;;;;5068641;28;20248;-72
2021/03/18 01:04:04;;;;;;;4.93;4.33;;;5.40;38.50;;;;;;5068866;28;20211;-73
2021/03/18 01:06:30;;;;;;;4.83;4.53;;;5.00;38.50;;;;;;5068924;28;20618;-72
2021/03/18 01:08:57;;;;;;;4.20;4.00;;;5.20;38.60;;;;;;5068299;28;20417;-72
2021/03/18 01:11:26;;;;;;;4.80;4.40;;;5.40;37.90;;;;;;5068675;28;20444;-72
2021/03/18 01:13:58;;;;;;;3.93;3.60;;;5.50;37.60;;;;;;5068592;28;20437;-72
2021/03/18 01:16:38;;;;;;;4.20;3.90;;;5.40;36.80;;;;;;5068544;28;20406;-72
2021/03/18 01:19:07;;;;;;;4.13;3.83;;;5.50;38.50;;;;;;5068712;28;20482;-72
2021/03/18 01:21:38;;;;;;;4.50;4.20;;;5.50;38.90;;;;;;5068492;28;20444;-73
2021/03/18 01:24:05;;;;;;;7.77;4.60;;;5.90;38.00;;;;;;5068710;28;20475;-73
2021/03/18 01:26:31;;;;;;;4.60;4.30;;;5.70;36.90;;;;;;5068643;28;20754;-72
2021/03/18 01:28:56;;;;;;;4.57;4.20;;;5.90;36.10;;;;;;5068225;28;20413;-72
2021/03/18 01:31:22;;;;;;;8.77;4.67;;;5.70;35.70;;;;;;5068474;28;20433;-72
2021/03/18 01:33:48;;;;;;;5.00;4.50;;;5.50;36.70;;;;;;5068567;28;20175;-72
2021/03/18 01:36:14;;;;;;;5.13;4.73;;;5.30;37.70;;;;;;5068558;28;20254;-72
2021/03/18 01:38:42;;;;;;;4.50;4.00;;;5.00;37.80;;;;;;5068227;28;20428;-72
2021/03/18 01:41:08;;;;;;;5.30;4.73;;;4.80;38.80;;;;;;5067456;28;20410;-72
2021/03/18 01:43:34;;;;;;;4.43;4.13;;;5.00;38.60;;;;;;5069169;28;20912;-73
2021/03/18 01:46:00;;;;;;;6.23;4.87;;;5.20;39.00;;;;;;5071904;28;20171;-72
2021/03/18 01:48:27;;;;;;;5.30;4.90;;;4.90;38.40;;;;;;5073044;28;20432;-72
2021/03/18 01:50:53;;;;;;;5.30;4.80;;;4.90;39.10;;;;;;5072802;28;20421;-73
2021/03/18 01:53:20;;;;;;;5.60;5.07;;;5.10;38.50;;;;;;5071957;28;20453;-72
2021/03/18 01:55:48;;;;;;;5.93;5.43;;;5.00;38.70;;;;;;5072610;28;20406;-73
2021/03/18 01:58:13;;;;;;;4.53;4.13;;;5.10;39.60;;;;;;5072018;28;20455;-73
2021/03/18 02:00:41;;;;;;;5.80;5.00;;;5.10;39.90;;;;;;5071874;28;20410;-73
2021/03/18 02:03:07;;;;;;;5.07;4.50;;;5.40;39.30;;;;;;5072022;28;20195;-73
2021/03/18 02:05:33;;;;;;;4.43;4.13;;;5.30;38.00;;;;;;5071972;28;20414;-72
2021/03/18 02:08:00;;;;;;;4.70;4.30;;;5.20;38.60;;;;;;5070334;28;20179;-72
2021/03/18 02:10:31;;;;;;;4.83;4.27;;;5.30;38.70;;;;;;5070553;28;20410;-72
2021/03/18 02:12:58;;;;;;;8.93;3.87;;;5.10;38.10;;;;;;5071671;28;20960;-73
2021/03/18 02:15:30;;;;;;;4.83;4.43;;;4.90;38.90;;;;;;5071801;28;20397;-74
2021/03/18 02:18:11;;;;;;;4.50;4.20;;;5.00;39.00;;;;;;5071807;28;20405;-72
2021/03/18 02:21:10;;;;;;;5.00;4.50;;;5.10;39.30;;;;;;5070428;28;20503;-73
2021/03/18 02:24:16;;;;;;;4.90;4.50;;;5.40;38.80;;;;;;5071873;28;20752;-73
2021/03/18 02:27:00;;;;;;;5.73;4.43;;;5.80;37.90;;;;;;5071714;28;20401;-73
2021/03/18 02:29:50;;;;;;;4.50;4.20;;;5.40;37.40;;;;;;5071332;28;20417;-73
2021/03/18 02:32:28;;;;;;;4.73;4.33;;;5.10;37.70;;;;;;5071296;28;20456;-73
2021/03/18 02:35:26;;;;;;;6.63;3.70;;;5.00;39.00;;;;;;5071676;28;20406;-72
2021/03/18 02:38:18;;;;;;;4.97;4.57;;;5.50;38.40;;;;;;5069343;28;20960;-72
2021/03/18 02:40:46;;;;;;;4.50;4.13;;;5.70;37.40;;;;;;5071550;28;20418;-72
2021/03/18 02:43:15;;;;;;;4.27;4.00;;;5.50;37.30;;;;;;5070122;28;20435;-72
2021/03/18 02:45:50;;;;;;;5.93;4.63;;;5.50;38.90;;;;;;5071646;28;20455;-73
2021/03/18 02:48:22;;;;;;;6.33;5.20;;;5.60;36.90;;;;;;5071333;28;20438;-72
2021/03/18 02:50:50;;;;;;;4.93;4.37;;;5.80;37.30;;;;;;5071142;28;20410;-72
2021/03/18 02:53:17;;;;;;;4.40;4.00;;;5.90;35.70;;;;;;5071078;28;20505;-72
2021/03/18 02:55:45;;;;;;;3.87;3.57;;;5.70;36.20;;;;;;5069115;28;20439;-72
2021/03/18 02:58:25;;;;;;;4.40;4.00;;;5.80;36.50;;;;;;5070517;28;20418;-72
2021/03/18 03:00:52;;;;;;;4.60;4.20;;;5.50;36.20;;;;;;5071115;28;20409;-73
2021/03/18 03:03:18;;;;;;;4.37;3.97;;;5.20;37.70;;;;;;5070861;28;20448;-72
2021/03/18 03:05:50;;;;;;;5.10;4.70;;;4.90;37.60;;;;;;5070727;28;20409;-73
2021/03/18 03:08:17;;;;;;;4.30;4.00;;;4.80;38.30;;;;;;5070797;28;20896;-73
2021/03/18 03:10:44;;;;;;;6.63;4.83;;;4.90;38.40;;;;;;5070701;28;20513;-72
2021/03/18 03:13:11;;;;;;;4.43;4.03;;;4.90;38.40;;;;;;5070380;28;20458;-73
2021/03/18 03:15:38;;;;;;;5.20;4.67;;;5.00;37.90;;;;;;5070746;28;20413;-72
2021/03/18 03:18:08;;;;;;;4.03;3.70;;;5.10;38.50;;;;;;5070701;28;20416;-72
2021/03/18 03:20:34;;;;;;;6.57;4.87;;;5.20;37.50;;;;;;5070722;28;20956;-72
2021/03/18 03:23:21;;;;;;;4.70;4.30;;;5.20;37.20;;;;;;5070476;28;20503;-73
2021/03/18 03:25:47;;;;;;;4.50;4.10;;;5.20;37.50;;;;;;5071026;28;20516;-73
2021/03/18 03:28:16;;;;;;;4.87;4.33;;;5.00;38.30;;;;;;5070240;28;20410;-73
2021/03/18 03:30:41;;;;;;;4.83;4.47;;;5.00;37.80;;;;;;5069146;28;20856;-72
2021/03/18 03:33:08;;;;;;;4.70;4.40;;;5.00;37.80;;;;;;5070603;28;20599;-72
2021/03/18 03:35:35;;;;;;;6.67;4.37;;;5.30;38.40;;;;;;5070612;28;20179;-73
2021/03/18 03:38:00;;;;;;;4.83;4.10;;;5.60;36.80;;;;;;5070321;28;20437;-72
2021/03/18 03:40:28;;;;;;;6.00;4.53;;;5.80;36.70;;;;;;5070676;28;20774;-72
2021/03/18 03:42:54;;;;;;;6.97;4.40;;;5.80;37.40;;;;;;5070376;28;20191;-72
2021/03/18 03:45:20;;;;;;;4.80;4.10;;;5.70;37.70;;;;;;5070608;28;20422;-72
2021/03/18 03:47:47;;;;;;;4.37;4.03;;;5.70;37.20;;;;;;5070442;28;20217;-73
2021/03/18 03:50:19;;;;;;;4.40;4.00;;;5.90;36.50;;;;;;5069989;28;20411;-72
2021/03/18 03:53:03;;;;;;;8.20;4.30;;;5.70;37.20;;;;;;5069931;28;20460;-72
2021/03/18 03:55:48;;;;;;;4.53;4.13;;;5.60;36.60;;;;;;5070312;28;20810;-73
2021/03/18 03:58:32;;;;;;;6.97;3.77;;;5.50;37.70;;;;;;5069542;28;20417;-73
2021/03/18 04:01:01;;;;;;;7.20;4.20;;;5.70;36.70;;;;;;5069829;28;20875;-73
2021/03/18 04:03:29;;;;;;;6.00;3.83;;;5.50;36.60;;;;;;5069637;28;20765;-72
2021/03/18 04:05:59;;;;;;;7.43;4.47;;;5.40;37.90;;;;;;5069380;28;20425;-72
2021/03/18 04:08:27;;;;;;;4.90;4.50;;;5.40;38.40;;;;;;5069016;28;20539;-72
2021/03/18 04:10:56;;;;;;;7.40;4.13;;;5.40;38.80;;;;;;5069473;28;20419;-72
2021/03/18 04:13:24;;;;;;;4.93;4.43;;;5.30;37.10;;;;;;5069083;28;20544;-74
2021/03/18 04:15:51;;;;;;;4.77;4.00;;;5.70;37.90;;;;;;5069341;28;20518;-72
2021/03/18 04:18:22;;;;;;;4.33;4.03;;;5.60;37.40;;;;;;5069438;28;20437;-72
2021/03/18 04:20:48;;;;;;;5.37;4.97;;;5.40;37.30;;;;;;5069154;28;20412;-71
2021/03/18 04:23:15;;;;;;;5.57;4.20;;;5.40;37.70;;;;;;5068267;28;20467;-72
2021/03/18 04:25:41;;;;;;;6.73;4.50;;;5.30;37.70;;;;;;5069372;28;20447;-72
2021/03/18 04:28:11;;;;;;;5.17;4.30;;;5.10;38.00;;;;;;5067528;28;20425;-72
2021/03/18 04:30:39;;;;;;;3.93;3.63;;;5.20;38.80;;;;;;5069229;28;20843;-72
2021/03/18 04:33:05;;;;;;;5.10;4.63;;;5.30;38.70;;;;;;5067527;28;20472;-74
2021/03/18 04:35:32;;;;;;;4.83;4.33;;;5.40;38.00;;;;;;5068856;28;20412;-73
2021/03/18 04:38:00;;;;;;;5.03;4.50;;;5.40;38.30;;;;;;5068738;28;20534;-72
2021/03/18 04:40:25;;;;;;;4.63;4.17;;;5.80;37.10;;;;;;5066108;28;20429;-73
2021/03/18 04:42:52;;;;;;;5.93;5.33;;;5.70;36.60;;;;;;5057384;28;20473;-73
2021/03/18 04:45:20;;;;;;;4.93;4.53;;;5.60;37.40;;;;;;5049359;28;20183;-73
2021/03/18 04:47:48;;;;;;;4.97;4.57;;;5.90;35.80;;;;;;5051221;28;20428;-72
2021/03/18 04:50:18;;;;;;;5.37;4.90;;;6.00;36.70;;;;;;5058595;28;20463;-72
2021/03/18 04:52:44;;;;;;;4.77;4.43;;;5.80;36.00;;;;;;5068725;28;21038;-73
2021/03/18 04:55:11;;;;;;;4.40;4.10;;;5.60;37.30;;;;;;5061601;28;20434;-73
2021/03/18 04:57:41;;;;;;;5.50;3.97;;;5.80;37.60;;;;;;5057141;28;20206;-72
2021/03/18 05:00:08;;;;;;;4.80;4.40;;;5.80;37.80;;;;;;5049212;28;20948;-72
2021/03/18 05:02:36;;;;;;;6.40;5.90;;;5.80;36.90;;;;;;5048700;28;20527;-72
2021/03/18 05:05:02;;;;;;;4.53;4.23;;;5.60;36.60;;;;;;5048603;28;21059;-72
2021/03/18 05:07:30;;;;;;;7.20;4.60;;;5.70;37.00;;;;;;5047060;28;20418;-73
2021/03/18 05:09:56;;;;;;;7.50;4.40;;;5.40;37.70;;;;;;5053579;28;20825;-72
2021/03/18 05:12:22;;;;;;;5.40;4.90;;;5.80;36.00;;;;;;5068072;28;20567;-72
2021/03/18 05:14:48;;;;;;;5.57;4.80;;;5.70;36.70;;;;;;5068640;28;20925;-72
2021/03/18 05:17:16;;;;;;;4.50;4.20;;;5.80;37.10;;;;;;5049657;28;20257;-73
2021/03/18 05:19:42;;;;;;;5.77;4.13;;;5.80;37.10;;;;;;5047519;28;20410;-73
2021/03/18 05:22:09;;;;;;;4.10;3.80;;;5.90;37.00;;;;;;5057240;28;20438;-73
2021/03/18 05:24:38;;;;;;;4.50;4.20;;;6.20;36.10;;;;;;5060199;28;20564;-73
2021/03/18 05:27:04;;;;;;;5.03;4.63;;;6.10;35.90;;;;;;5056657;28;20769;-73
2021/03/18 05:29:29;;;;;;;5.57;5.07;;;6.10;36.20;;;;;;5054328;28;20420;-73
2021/03/18 05:31:55;;;;;;;5.57;5.07;;;6.10;36.00;;;;;;5068715;28;20879;-73
2021/03/18 05:34:20;;;;;;;4.90;4.50;;;6.10;36.90;;;;;;5067151;28;20185;-73
2021/03/18 05:36:46;;;;;;;4.80;4.40;;;6.10;36.00;;;;;;5047362;28;20247;-74
2021/03/18 05:39:12;;;;;;;4.50;4.20;;;6.10;36.40;;;;;;5053836;28;20317;-74
2021/03/18 05:41:39;;;;;;;4.73;4.27;;;6.20;35.30;;;;;;5068520;28;20456;-75
2021/03/18 05:44:07;;;;;;;4.87;4.47;;;6.20;35.50;;;;;;5067307;28;20174;-74
2021/03/18 05:46:39;;;;;;;7.43;5.97;;;6.30;35.20;;;;;;5068514;28;20512;-74
2021/03/18 05:49:11;;;;;;;6.93;5.70;;;6.30;35.70;;;;;;5066865;28;20424;-76
2021/03/18 05:51:38;;;;;;;7.00;6.40;;;6.30;36.00;;;;;;5067022;28;20505;-73
2021/03/18 05:54:04;;;;;;;5.17;4.77;;;6.30;36.00;;;;;;5068463;28;20431;-75
2021/03/18 05:56:32;;;;;;;13.70;10.13;;;6.10;36.50;;;;;;5066926;28;20475;-73
2021/03/18 05:58:59;;;;;;;5.70;5.13;;;6.20;36.90;;;;;;5066743;28;20965;-73
2021/03/18 06:01:24;;;;;;;6.60;5.50;;;6.10;36.80;;;;;;5067116;28;20460;-72
2021/03/18 06:03:50;;;;;;;9.90;6.10;;;6.20;36.00;;;;;;5067663;28;20412;-74
2021/03/18 06:06:16;;;;;;;14.67;6.90;;;6.10;36.50;;;;;;5068160;28;20179;-74
2021/03/18 06:08:45;;;;;;;5.77;5.27;;;5.80;37.70;;;;;;5067755;28;20229;-76
2021/03/18 06:11:11;;;;;;;5.17;4.77;;;6.00;37.20;;;;;;5067960;28;20180;-74
2021/03/18 06:13:38;;;;;;;4.67;4.30;;;6.20;36.00;;;;;;5068018;28;20467;-75
2021/03/18 06:16:05;;;;;;;5.80;5.30;;;6.10;35.40;;;;;;5068268;28;20749;-73
2021/03/18 06:18:33;;;;;;;9.30;5.80;;;5.90;36.50;;;;;;5067520;28;20402;-73
2021/03/18 06:20:59;;;;;;;5.00;4.53;;;5.90;38.40;;;;;;5066955;28;20951;-75
2021/03/18 06:23:24;;;;;;;5.47;4.57;;;5.90;36.20;;;;;;5068029;28;20437;-74
2021/03/18 06:25:50;;;;;;;6.80;5.10;;;5.90;36.40;;;;;;5067984;28;20199;-73
2021/03/18 06:28:33;;;;;;;5.27;4.73;;;5.70;37.20;;;;;;5067983;28;20217;-74
2021/03/18 06:31:13;;;;;;;4.80;4.40;;;5.70;36.30;;;;;;5069382;28;20523;-74
2021/03/18 06:33:44;;;;;;;6.90;4.37;;;5.90;36.90;;;;;;5070945;28;20504;-74
2021/03/18 06:36:36;;;;;;;5.40;4.97;;;6.00;35.70;;;;;;5071784;28;20410;-75
2021/03/18 06:39:15;;;;;;;5.27;4.77;;;6.10;35.50;;;;;;5069186;28;20927;-75
2021/03/18 06:41:45;;;;;;;4.30;4.03;;;6.20;35.30;;;;;;5070809;28;20493;-75
2021/03/18 06:44:29;;;;;;;4.63;4.30;;;6.40;36.30;;;;;;5070206;28;20819;-75
2021/03/18 06:46:57;;;;;;;7.23;6.50;;;6.60;35.40;;;;;;5070608;28;20413;-71
2021/03/18 06:49:24;;;;;;;6.60;6.10;;;9.00;74.80;;;;;;5071137;28;20833;-71
2021/03/18 06:52:04;;;;;;;7.30;5.93;;;10.70;46.00;;;;;;5070924;28;20452;-71
2021/03/18 06:54:34;;;;;;;5.60;5.10;;;11.10;39.50;;;;;;5064644;28;20429;-71
2021/03/18 06:57:01;;;;;;;4.77;4.37;;;10.90;33.10;;;;;;5055851;28;20509;-74
2021/03/18 06:59:35;;;;;;;5.20;4.70;;;9.90;27.90;;;;;;5049662;28;21116;-71
2021/03/18 07:02:12;;;;;;;5.87;4.90;;;8.90;28.10;;;;;;5049132;28;20515;-72
2021/03/18 07:04:41;;;;;;;4.63;4.23;;;8.30;29.70;;;;;;5050865;28;20423;-72
2021/03/18 07:07:16;;;;;;;5.20;4.70;;;7.90;29.90;;;;;;5051387;28;20423;-72
2021/03/18 07:09:44;;;;;;;4.60;4.20;;;7.70;30.10;;;;;;5050483;28;20417;-72
2021/03/18 07:12:11;;;;;;;4.67;4.20;;;7.50;30.40;;;;;;5050643;28;20454;-73
2021/03/18 07:14:40;;;;;;;6.97;6.27;;;7.20;30.10;;;;;;5050713;28;20411;-72
2021/03/18 07:17:08;;;;;;;4.43;4.03;;;7.00;32.00;;;;;;5050167;28;20955;-71
2021/03/18 07:19:34;;;;;;;5.13;4.63;;;7.10;32.40;;;;;;5050912;28;20406;-72
2021/03/18 07:22:00;;;;;;;6.57;5.80;;;6.90;32.90;;;;;;5050908;28;20968;-72
2021/03/18 07:24:37;;;;;;;5.07;4.60;;;6.90;32.90;;;;;;5050773;28;20414;-71
2021/03/18 07:27:13;;;;;;;7.50;5.60;;;6.90;32.80;;;;;;5049357;28;20917;-72
2021/03/18 07:29:46;;;;;;;6.00;4.80;;;6.90;32.80;;;;;;5060236;28;21134;-71
2021/03/18 07:32:13;;;;;;;7.77;4.93;;;6.90;33.10;;;;;;5069609;28;20472;-74
2021/03/18 07:34:40;;;;;;;6.17;4.73;;;7.10;32.20;;;;;;5070920;28;20748;-75
2021/03/18 07:37:08;;;;;;;6.53;4.80;;;6.90;31.90;;;;;;5070746;28;20436;-76
2021/03/18 07:39:36;;;;;;;7.23;5.27;;;6.80;32.60;;;;;;5068117;28;20465;-73
2021/03/18 07:42:02;;;;;;;7.00;6.50;;;6.90;33.20;;;;;;5069417;28;20482;-72
2021/03/18 07:44:28;;;;;;;6.30;5.73;;;6.90;32.70;;;;;;5070518;28;20413;-71
2021/03/18 07:46:55;;;;;;;9.20;5.73;;;6.90;33.00;;;;;;5071551;28;20876;-75
2021/03/18 07:49:26;;;;;;;10.33;9.27;;;6.70;33.20;;;;;;5069075;28;20796;-72
2021/03/18 07:51:55;;;;;;;7.13;6.07;;;6.80;33.10;;;;;;5070106;28;20819;-76
2021/03/18 07:54:22;;;;;;;6.97;6.27;;;7.00;33.20;;;;;;5068122;28;20424;-72
2021/03/18 07:56:53;;;;;;;11.00;6.40;;;6.80;32.60;;;;;;5069562;28;20428;-72
2021/03/18 07:59:29;;;;;;;7.80;6.40;;;6.70;33.90;;;;;;5069635;28;20400;-73
2021/03/18 08:02:17;;;;;;;8.33;6.10;;;6.80;33.70;;;;;;5069143;28;20447;-72
2021/03/18 08:04:46;;;;;;;8.10;6.27;;;6.60;33.00;;;;;;5069847;28;20412;-69
2021/03/18 08:07:40;;;;;;;6.53;5.93;;;6.40;33.90;;;;;;5069183;28;20776;-68
2021/03/18 08:10:11;;;;;;;6.40;5.63;;;6.40;34.60;;;;;;5069625;28;20420;-73
2021/03/18 08:12:49;;;;;;;6.00;5.40;;;6.40;34.00;;;;;;5069570;28;20452;-69
2021/03/18 08:15:30;;;;;;;7.60;5.83;;;6.60;33.40;;;;;;5069485;28;20411;-72
2021/03/18 08:18:17;;;;;;;7.00;6.30;;;6.60;34.10;;;;;;5070291;28;20408;-72
2021/03/18 08:20:42;;;;;;;7.10;6.50;;;6.70;34.80;;;;;;5070020;28;20421;-71
2021/03/18 08:23:26;;;;;;;7.20;6.60;;;7.00;32.80;;;;;;5068058;28;20432;-72
2021/03/18 08:25:56;;;;;;;8.03;6.50;;;6.90;33.80;;;;;;5069162;28;20190;-71
2021/03/18 08:28:42;;;;;;;7.10;6.50;;;6.80;31.80;;;;;;5069594;28;20923;-72
2021/03/18 08:31:10;;;;;;;10.07;6.87;;;6.40;32.70;;;;;;5069898;28;20493;-70
2021/03/18 08:33:57;;;;;;;6.47;5.97;;;6.50;33.30;;;;;;5072222;28;20449;-74
2021/03/18 08:36:34;;;;;;;6.93;6.30;;;6.60;33.60;;;;;;5070471;28;20829;-72
2021/03/18 08:39:33;;;;;;;6.67;6.10;;;6.70;35.10;;;;;;5072337;28;20437;-72
2021/03/18 08:41:59;;;;;;;6.93;5.80;;;7.30;33.60;;;;;;5060634;28;21009;-72
2021/03/18 08:44:29;;;;;;;7.70;7.00;;;7.60;33.20;;;;;;5073993;28;20779;-69
2021/03/18 08:46:59;;;;;;;7.40;6.80;;;7.60;30.70;;;;;;5068824;28;20432;-71
2021/03/18 08:49:36;;;;;;;6.70;6.20;;;6.90;33.00;;;;;;5055753;28;21091;-73
2021/03/18 08:52:11;;;;;;;7.93;7.10;;;7.10;31.70;;;;;;5056494;28;20460;-71
2021/03/18 08:54:39;;;;;;;7.90;7.20;;;7.30;32.10;;;;;;5060739;28;20409;-71
2021/03/18 08:57:08;;;;;;;8.70;6.43;;;7.30;32.20;;;;;;5058758;28;21110;-70
2021/03/18 08:59:35;;;;;;;9.00;7.60;;;7.50;31.90;;;;;;5056103;28;20437;-73
2021/03/18 09:02:13;;;;;;;7.77;6.97;;;7.70;32.00;;;;;;5057449;28;20924;-75
2021/03/18 09:04:44;;;;;;;11.13;6.77;;;7.80;30.60;;;;;;5063073;28;20412;-70
2021/03/18 09:07:12;;;;;;;7.40;6.70;;;7.80;30.60;;;;;;5076937;28;20421;-71
2021/03/18 09:09:38;;;;;;;9.43;6.70;;;7.70;30.20;;;;;;5075942;28;20431;-69
2021/03/18 09:12:06;;;;;;;15.53;8.80;;;7.80;28.50;;;;;;5075218;28;20865;-71
2021/03/18 09:14:32;;;;;;;6.83;6.33;;;7.70;30.50;;;;;;5069105;28;20410;-71
2021/03/18 09:17:14;;;;;;;13.13;7.63;;;7.80;30.80;;;;;;5070579;28;20406;-70
2021/03/18 09:19:46;;;;;;;9.00;6.40;;;7.70;30.20;;;;;;5071599;28;20661;-72
2021/03/18 09:22:24;;;;;;;7.37;6.67;;;7.60;30.50;;;;;;5070853;28;20436;-71
2021/03/18 09:24:54;;;;;;;7.33;6.73;;;7.70;30.10;;;;;;5070550;28;20968;-70
2021/03/18 09:27:20;;;;;;;7.40;6.60;;;7.90;29.90;;;;;;5073557;28;20421;-69
2021/03/18 09:29:46;;;;;;;7.63;7.03;;;8.00;30.30;;;;;;5073993;28;20412;-70
2021/03/18 09:32:13;;;;;;;7.73;6.47;;;8.00;29.50;;;;;;5071335;28;20203;-69
2021/03/18 09:34:41;;;;;;;7.80;7.13;;;8.10;30.50;;;;;;5070265;28;20408;-72
2021/03/18 09:37:07;;;;;;;9.37;8.43;;;8.10;30.20;;;;;;5071164;28;20518;-69
2021/03/18 09:39:33;;;;;;;8.47;5.50;;;8.10;30.30;;;;;;5067396;28;20448;-70
2021/03/18 09:42:02;;;;;;;6.63;6.13;;;7.90;30.90;;;;;;5074554;28;20799;-69
2021/03/18 09:44:30;;;;;;;14.20;6.20;;;7.90;31.40;;;;;;5071885;28;20225;-70
2021/03/18 09:46:56;;;;;;;10.13;6.60;;;7.90;30.70;;;;;;5072729;28;20488;-70
2021/03/18 09:49:33;;;;;;;9.17;6.83;;;7.80;30.40;;;;;;5071830;28;20420;-69
2021/03/18 09:52:02;;;;;;;7.00;6.50;;;7.90;30.20;;;;;;5070814;28;20452;-70
2021/03/18 09:54:29;;;;;;;6.80;6.30;;;7.70;28.80;;;;;;5069014;28;20836;-71
2021/03/18 09:56:59;;;;;;;6.43;5.93;;;7.60;30.00;;;;;;5072009;28;20471;-71
2021/03/18 09:59:25;;;;;;;7.27;6.57;;;7.90;30.10;;;;;;5068474;28;20424;-72
2021/03/18 10:01:51;;;;;;;7.37;6.67;;;8.20;30.00;;;;;;5069833;28;20529;-74
2021/03/18 10:04:19;;;;;;;8.57;5.57;;;8.60;29.20;;;;;;5068478;28;20579;-71
2021/03/18 10:06:53;;;;;;;5.97;5.50;;;9.00;26.80;;;;;;5070824;28;20417;-69
2021/03/18 10:09:27;;;;;;;5.90;4.90;;;9.10;27.00;;;;;;5071285;28;20995;-68
2021/03/18 10:11:59;;;;;;;6.67;5.37;;;8.90;25.80;;;;;;5071470;28;20464;-69
2021/03/18 10:14:25;;;;;;;7.10;6.40;;;8.90;25.50;;;;;;5072827;28;20417;-74
2021/03/18 10:16:51;;;;;;;5.27;4.87;;;8.80;25.60;;;;;;5072138;28;20401;-70
2021/03/18 10:19:19;;;;;;;6.13;4.70;;;9.00;25.60;;;;;;5072538;28;20167;-74
2021/03/18 10:21:46;;;;;;;5.73;4.83;;;9.30;26.00;;;;;;5072200;28;20417;-74
2021/03/18 10:24:13;;;;;;;5.80;5.30;;;9.30;26.80;;;;;;5074861;28;20468;-73
2021/03/18 10:26:40;;;;;;;5.43;5.03;;;8.90;26.30;;;;;;5080663;28;20421;-72
2021/03/18 10:29:08;;;;;;;6.60;6.10;;;8.90;26.50;;;;;;5066284;28;20426;-74
2021/03/18 10:31:36;;;;;;;6.20;5.63;;;8.70;27.50;;;;;;5077338;28;20441;-73
2021/03/18 10:34:03;;;;;;;5.60;5.10;;;8.50;27.70;;;;;;5079563;28;20704;-73
2021/03/18 10:36:36;;;;;;;5.87;5.43;;;8.30;27.10;;;;;;5080376;28;20979;-71
2021/03/18 10:39:11;;;;;;;7.20;5.50;;;8.40;27.50;;;;;;5051858;28;20422;-72
2021/03/18 10:41:56;;;;;;;6.47;5.90;;;8.50;27.10;;;;;;5065185;28;20452;-73
2021/03/18 10:44:32;;;;;;;5.20;4.73;;;8.50;27.20;;;;;;5058653;28;20770;-72
2021/03/18 10:47:17;;;;;;;6.33;5.17;;;8.40;26.90;;;;;;5057453;28;20449;-73
2021/03/18 10:50:04;;;;;;;5.90;5.27;;;8.50;27.00;;;;;;5060074;28;20498;-73
2021/03/18 10:52:30;;;;;;;5.23;4.93;;;8.40;25.90;;;;;;5059207;28;20478;-71
2021/03/18 10:54:57;;;;;;;5.80;5.40;;;8.50;26.20;;;;;;5060336;28;20430;-72
2021/03/18 10:57:23;;;;;;;8.43;5.30;;;8.30;26.40;;;;;;5065229;28;20180;-69
2021/03/18 10:59:59;;;;;;;5.70;5.20;;;8.20;26.50;;;;;;5055557;28;20415;-72
2021/03/18 11:02:29;;;;;;;5.70;5.17;;;8.10;27.80;;;;;;5070672;28;20796;-71
2021/03/18 11:04:57;;;;;;;6.47;5.10;;;8.20;27.10;;;;;;5078422;28;20413;-69
2021/03/18 11:07:22;;;;;;;10.37;6.17;;;8.30;26.90;;;;;;5076524;28;20452;-71
2021/03/18 11:10:11;;;;;;;6.20;5.63;;;8.10;26.90;;;;;;5077080;28;20748;-70
2021/03/18 11:12:38;;;;;;;6.03;5.33;;;8.10;27.90;;;;;;5081570;28;20283;-70
2021/03/18 11:15:07;;;;;;;7.90;5.27;;;8.30;26.60;;;;;;5077997;28;20421;-70
2021/03/18 11:17:33;;;;;;;5.60;5.10;;;8.10;26.60;;;;;;5074970;28;20847;-72
2021/03/18 11:20:14;;;;;;;5.93;5.50;;;8.30;27.20;;;;;;5067141;28;20402;-72
2021/03/18 11:22:41;;;;;;;5.60;5.20;;;8.40;26.60;;;;;;5062422;28;20196;-73
2021/03/18 11:25:41;;;;;;;7.97;5.73;;;8.60;25.80;;;;;;5068876;28;20430;-72
2021/03/18 11:28:13;;;;;;;5.30;4.70;;;8.60;23.90;;;;;;5064903;28;20407;-71
2021/03/18 11:30:41;;;;;;;4.93;4.60;;;7.90;23.30;;;;;;5069368;28;20478;-73
2021/03/18 11:33:11;;;;;;;9.97;5.30;;;7.90;24.70;;;;;;5074255;28;20493;-71
2021/03/18 11:35:38;;;;;;;6.13;5.40;;;8.30;25.30;;;;;;5055411;28;20430;-69
2021/03/18 11:38:04;;;;;;;5.40;4.90;;;8.40;25.00;;;;;;5068922;28;20429;-72
2021/03/18 11:40:30;;;;;;;5.50;5.10;;;8.50;23.10;;;;;;5069925;28;20607;-72
2021/03/18 11:42:55;;;;;;;12.67;9.03;;;8.50;23.10;;;;;;5069936;28;20501;-72
2021/03/18 11:45:21;;;;;;;6.93;5.30;;;8.40;21.70;;;;;;5069323;28;20229;-72
2021/03/18 11:47:47;;;;;;;9.43;6.67;;;8.30;22.10;;;;;;5069558;28;20414;-72
2021/03/18 11:50:12;;;;;;;5.20;4.80;;;8.30;23.20;;;;;;5068413;28;20178;-72
2021/03/18 11:52:38;;;;;;;4.93;4.50;;;8.60;23.90;;;;;;5069454;28;20689;-73
2021/03/18 11:55:05;;;;;;;5.57;5.07;;;8.50;22.10;;;;;;5069751;28;20160;-71
2021/03/18 11:57:30;;;;;;;5.50;5.10;;;8.50;24.80;;;;;;5069522;28;20163;-71
2021/03/18 11:59:56;;;;;;;6.40;5.23;;;8.70;27.40;;;;;;5069426;28;20927;-73
2021/03/18 12:02:21;;;;;;;5.70;5.20;;;8.80;27.10;;;;;;5069161;28;20195;-72
2021/03/18 12:04:47;;;;;;;6.27;5.77;;;8.70;26.90;;;;;;5069424;28;20182;-72
2021/03/18 12:07:13;;;;;;;5.80;5.40;;;8.30;28.20;;;;;;5069235;28;20171;-73
2021/03/18 12:09:38;;;;;;;6.10;5.60;;;8.30;28.50;;;;;;5068195;28;20180;-73
2021/03/18 12:12:05;;;;;;;6.63;6.03;;;7.80;29.60;;;;;;5069250;28;20498;-72
2021/03/18 12:14:31;;;;;;;8.73;6.03;;;7.60;28.80;;;;;;5072683;28;20168;-72
2021/03/18 12:16:56;;;;;;;5.30;4.90;;;7.40;28.50;;;;;;5082432;28;20398;-70
2021/03/18 12:19:22;;;;;;;6.17;5.67;;;7.50;28.40;;;;;;5070374;28;20171;-69
2021/03/18 12:21:48;;;;;;;5.73;5.20;;;7.70;28.60;;;;;;5072598;28;20194;-71
2021/03/18 12:24:13;;;;;;;6.57;5.90;;;8.00;30.80;;;;;;5069684;28;20178;-69
2021/03/18 12:26:40;;;;;;;5.17;4.73;;;8.20;28.50;;;;;;5078322;28;20182;-69
2021/03/18 12:29:06;;;;;;;5.70;5.20;;;8.30;29.60;;;;;;5076261;28;20654;-72
2021/03/18 12:31:32;;;;;;;5.93;5.53;;;8.40;26.60;;;;;;5081030;28;20445;-70
2021/03/18 12:34:01;;;;;;;5.17;4.77;;;8.30;28.40;;;;;;5074632;28;20465;-71
2021/03/18 12:36:26;;;;;;;6.63;6.07;;;8.30;30.00;;;;;;5068095;28;20425;-71
2021/03/18 12:38:52;;;;;;;7.00;5.30;;;8.20;31.00;;;;;;5067553;28;20488;-68
2021/03/18 12:41:17;;;;;;;6.00;5.27;;;8.20;30.00;;;;;;5068302;28;20224;-73
2021/03/18 12:43:43;;;;;;;4.33;4.03;;;8.10;30.10;;;;;;5069258;28;20197;-74
2021/03/18 12:46:09;;;;;;;5.00;4.67;;;8.20;29.80;;;;;;5069219;28;20198;-72
2021/03/18 12:48:34;;;;;;;4.90;4.60;;;8.10;29.60;;;;;;5071079;28;20218;-73
2021/03/18 12:51:00;;;;;;;4.90;4.50;;;8.30;29.90;;;;;;5072598;28;20214;-69
2021/03/18 12:53:26;;;;;;;6.00;5.50;;;8.60;29.40;;;;;;5071754;28;20515;-68
2021/03/18 12:55:52;;;;;;;5.77;4.90;;;8.60;29.30;;;;;;5069661;28;20175;-69
2021/03/18 12:58:18;;;;;;;6.40;5.77;;;8.70;29.50;;;;;;5068870;28;20413;-70
2021/03/18 13:00:44;;;;;;;5.27;4.77;;;8.60;28.00;;;;;;5070918;28;20406;-70
2021/03/18 13:03:10;;;;;;;7.00;6.50;;;8.80;28.60;;;;;;5069230;28;20230;-68
2021/03/18 13:05:36;;;;;;;5.40;4.90;;;8.60;28.60;;;;;;5069459;28;20441;-71
2021/03/18 13:08:02;;;;;;;5.10;4.60;;;8.50;28.90;;;;;;5072983;28;20180;-72